Harwinton, Connecticut
Current Conditions -  °F | °C
As of 8:45 AM on Saturday 25 Oct 2014 (Local Time) from KOXC Reporting Station
Clear Clear  
Wind Chill: 46°   Ceiling: Unl
Heat Index: 46°   Visibility: 10mi
Dew Point: 37°   Wind: 0mph
Humidity: 71%   Direction: NA
Pressure: 29.84"   Gusts: NA
Location:  41.77°N, 73.07°W
Report Text: KOXC 251245Z 00000KT 10SM SKC 08/03 A2984
Loading
Personal Weather Stations






























Interactive Weather Map
Tropical Storm Tracking
New forecast layout! Learn more

10-Day Weather Forecast

Advertisements
Track Severe Weather on mobile